createdAt,value
2018-09-08T00:00:02.423Z,5.22
2018-09-08T00:02:06.952Z,2.47
2018-09-08T00:04:11.346Z,5.58
2018-09-08T00:07:23.106Z,4.53
2018-09-08T00:09:35.106Z,4.95
2018-09-08T00:11:43.820Z,6.25
2018-09-08T00:13:55.490Z,6.25
2018-09-08T00:16:08.783Z,4.15
2018-09-08T00:18:21.309Z,4.42
2018-09-08T00:20:30.748Z,3.62
2018-09-08T00:22:45.283Z,4.95
2018-09-08T00:24:58.737Z,4.28
2018-09-08T00:27:02.130Z,4.78
2018-09-08T00:29:46.642Z,3.50
2018-09-08T00:31:50.585Z,7.00
2018-09-08T00:33:54.655Z,5.58
2018-09-08T00:35:58.638Z,6.05
2018-09-08T00:38:02.811Z,4.85
2018-09-08T00:40:07.676Z,4.12
2018-09-08T00:42:14.142Z,5.05
2018-09-08T00:44:18.027Z,5.97
2018-09-08T00:46:21.870Z,6.33
2018-09-08T00:48:25.887Z,7.47
2018-09-08T00:50:30.028Z,3.67
2018-09-08T00:52:34.339Z,4.47
2018-09-08T00:54:38.935Z,4.50
2018-09-08T00:56:43.397Z,4.05
2018-09-08T00:58:52.903Z,4.22
2018-09-08T01:00:57.032Z,5.00
2018-09-08T01:03:01.680Z,4.78
2018-09-08T01:05:08.279Z,6.13
2018-09-08T01:07:17.660Z,4.17
2018-09-08T01:09:21.644Z,5.80
2018-09-08T01:11:26.124Z,5.25
2018-09-08T01:13:30.010Z,4.95
2018-09-08T01:15:34.161Z,4.45
2018-09-08T01:17:39.260Z,5.30
2018-09-08T01:19:43.961Z,4.22
2018-09-08T01:21:48.239Z,4.17
2018-09-08T01:23:53.874Z,4.97
2018-09-08T01:25:57.738Z,6.22
2018-09-08T01:28:02.403Z,3.93
2018-09-08T01:30:09.522Z,5.53
2018-09-08T01:32:14.231Z,5.80
2018-09-08T01:34:18.298Z,4.42
2018-09-08T01:36:22.319Z,6.72
2018-09-08T01:38:26.628Z,6.40
2018-09-08T01:40:30.494Z,7.40
2018-09-08T01:42:34.680Z,4.67
2018-09-08T01:44:39.684Z,5.28
2018-09-08T01:46:44.095Z,5.62
2018-09-08T01:48:48.834Z,6.40
2018-09-08T01:50:53.518Z,4.80
2018-09-08T01:52:58.080Z,4.70
2018-09-08T01:55:02.774Z,3.40
2018-09-08T01:57:07.393Z,8.60
2018-09-08T01:59:11.936Z,6.15
2018-09-08T02:01:16.233Z,4.80
2018-09-08T02:03:20.245Z,3.65
2018-09-08T02:05:24.202Z,5.70
2018-09-08T02:07:28.285Z,5.40
2018-09-08T02:09:32.191Z,7.43
2018-09-08T02:11:37.790Z,6.05
2018-09-08T02:13:42.230Z,3.47
2018-09-08T02:15:46.379Z,4.57
2018-09-08T02:17:50.291Z,7.47
2018-09-08T02:19:54.214Z,5.62
2018-09-08T02:21:59.659Z,7.05
2018-09-08T02:24:03.463Z,6.75
2018-09-08T02:26:10.425Z,6.27
2018-09-08T02:28:14.965Z,4.95
2018-09-08T02:30:19.044Z,7.08
2018-09-08T02:32:22.866Z,4.60
2018-09-08T02:34:27.269Z,5.90
2018-09-08T02:36:31.180Z,6.40
2018-09-08T02:38:35.674Z,7.93
2018-09-08T02:40:40.435Z,7.90
2018-09-08T02:42:44.747Z,9.68
2018-09-08T02:44:49.073Z,4.97
2018-09-08T02:46:53.035Z,5.97
2018-09-08T02:48:56.902Z,5.05
2018-09-08T02:50:59.915Z,6.22
2018-09-08T02:53:03.695Z,6.00
2018-09-08T02:55:07.817Z,6.72
2018-09-08T02:57:10.905Z,7.05
2018-09-08T02:59:14.087Z,6.87
2018-09-08T03:01:16.975Z,5.53
2018-09-08T03:03:20.197Z,7.77
2018-09-08T03:05:23.339Z,7.00
2018-09-08T03:07:26.217Z,8.77
2018-09-08T03:09:29.031Z,8.03
2018-09-08T03:11:31.952Z,6.30
2018-09-08T03:13:36.112Z,9.07
2018-09-08T03:15:39.689Z,8.17
2018-09-08T03:17:43.196Z,6.37
2018-09-08T03:19:46.433Z,9.53
2018-09-08T03:21:49.266Z,7.23
2018-09-08T03:23:52.128Z,4.28
2018-09-08T03:25:54.944Z,4.95
2018-09-08T03:27:57.769Z,6.67
2018-09-08T03:30:00.675Z,5.43
2018-09-08T03:32:05.485Z,2.93
2018-09-08T03:34:08.718Z,5.17
2018-09-08T03:36:11.790Z,3.63
2018-09-08T03:38:14.746Z,5.28
2018-09-08T03:40:17.718Z,5.50
2018-09-08T03:42:21.521Z,6.03
2018-09-08T03:44:24.776Z,3.30
2018-09-08T03:46:27.555Z,7.57
2018-09-08T03:48:30.450Z,4.42
2018-09-08T03:50:33.285Z,5.80
2018-09-08T03:52:36.392Z,8.00
2018-09-08T03:54:39.433Z,4.97
2018-09-08T03:56:42.368Z,5.87
2018-09-08T03:58:45.225Z,4.60
2018-09-08T04:00:48.048Z,5.13
2018-09-08T04:02:51.954Z,8.15
2018-09-08T04:04:55.871Z,5.37
2018-09-08T04:06:59.947Z,3.27
2018-09-08T04:09:04.451Z,9.10
2018-09-08T04:11:08.859Z,9.37
2018-09-08T04:13:13.487Z,9.60
2018-09-08T04:15:17.724Z,8.03
2018-09-08T04:17:21.555Z,10.53
2018-09-08T04:19:25.485Z,10.48
2018-09-08T04:21:29.345Z,9.27
2018-09-08T04:23:33.540Z,11.70
2018-09-08T04:25:37.981Z,8.27
2018-09-08T04:27:42.153Z,11.57
2018-09-08T04:29:46.232Z,7.00
2018-09-08T04:31:50.202Z,7.00
2018-09-08T04:33:54.221Z,8.43
2018-09-08T04:35:58.359Z,9.83
2018-09-08T04:38:02.210Z,8.00
2018-09-08T04:40:06.591Z,8.50
2018-09-08T04:42:10.924Z,9.30
2018-09-08T04:44:15.196Z,12.23
2018-09-08T04:46:19.240Z,8.10
2018-09-08T04:48:23.130Z,11.37
2018-09-08T04:50:27.068Z,8.63
2018-09-08T04:52:30.992Z,8.53
2018-09-08T04:57:42.294Z,8.53
2018-09-08T04:59:46.451Z,6.08
2018-09-08T05:01:50.405Z,11.57
2018-09-08T05:03:54.279Z,9.00
2018-09-08T05:05:58.149Z,8.60
2018-09-08T05:08:02.033Z,8.98
2018-09-08T05:10:08.612Z,9.97
2018-09-08T05:12:13.093Z,7.97
2018-09-08T05:14:17.064Z,9.53
2018-09-08T05:16:20.891Z,8.97
2018-09-08T05:18:24.776Z,12.20
2018-09-08T05:20:29.085Z,12.68
2018-09-08T05:22:32.995Z,8.10
2018-09-08T05:24:38.125Z,9.63
2018-09-08T05:26:42.399Z,9.67
2018-09-08T05:28:47.264Z,8.70
2018-09-08T05:30:51.193Z,11.08
2018-09-08T05:32:56.575Z,10.77
2018-09-08T05:35:00.542Z,9.63
2018-09-08T05:37:04.445Z,9.63
2018-09-08T05:39:08.786Z,10.70
2018-09-08T05:41:13.358Z,9.03
2018-09-08T05:43:17.317Z,10.87
2018-09-08T05:45:21.163Z,11.13
2018-09-08T05:47:25.014Z,9.67
2018-09-08T05:49:28.996Z,11.53
2018-09-08T05:51:32.876Z,11.60
2018-09-08T05:53:37.400Z,10.37
2018-09-08T05:55:41.743Z,10.93
2018-09-08T05:57:45.955Z,10.23
2018-09-08T05:59:49.968Z,10.30
2018-09-08T06:01:53.852Z,11.43
2018-09-08T06:03:57.667Z,12.20
2018-09-08T06:06:01.622Z,11.63
2018-09-08T06:08:06.283Z,12.27
2018-09-08T06:10:10.559Z,12.65
2018-09-08T06:12:14.781Z,12.30
2018-09-08T06:14:18.761Z,17.40
2018-09-08T06:16:22.817Z,10.43
2018-09-08T06:18:26.675Z,10.93
2018-09-08T06:20:30.539Z,10.90
2018-09-08T06:22:36.154Z,11.43
2018-09-08T06:24:41.004Z,15.33
2018-09-08T06:26:45.752Z,10.35
2018-09-08T06:28:49.706Z,13.30
2018-09-08T06:30:54.080Z,12.60
2018-09-08T06:32:58.020Z,12.20
2018-09-08T06:35:02.034Z,16.73
2018-09-08T06:37:07.479Z,11.40
2018-09-08T06:39:15.513Z,9.67
2018-09-08T06:41:19.360Z,11.70
2018-09-08T06:43:23.185Z,9.60
2018-09-08T06:45:27.172Z,11.43
2018-09-08T06:47:31.283Z,13.27
2018-09-08T06:49:36.343Z,12.50
2018-09-08T06:51:41.032Z,10.07
2018-09-08T06:53:45.136Z,10.47
2018-09-08T06:55:49.345Z,14.47
2018-09-08T06:57:53.339Z,12.70
2018-09-08T06:59:57.246Z,16.13
2018-09-08T07:02:01.196Z,15.50
2018-09-08T07:04:05.986Z,16.70
2018-09-08T07:06:10.276Z,13.63
2018-09-08T07:08:14.241Z,15.23
2018-09-08T07:10:18.295Z,16.40
2018-09-08T07:12:22.224Z,15.83
2018-09-08T07:14:26.266Z,12.73
2018-09-08T07:16:30.349Z,12.23
2018-09-08T07:18:34.848Z,15.50
2018-09-08T07:20:40.263Z,13.75
2018-09-08T07:22:44.516Z,11.93
2018-09-08T07:24:48.589Z,11.07
2018-09-08T07:26:52.486Z,8.97
2018-09-08T07:28:56.413Z,10.00
2018-09-08T07:31:00.293Z,10.60
2018-09-08T07:33:05.210Z,9.95
2018-09-08T07:35:09.782Z,12.00
2018-09-08T07:37:13.988Z,12.07
2018-09-08T07:39:17.953Z,10.23
2018-09-08T07:41:22.005Z,9.00
2018-09-08T07:43:25.937Z,11.17
2018-09-08T07:45:30.227Z,8.37
2018-09-08T07:47:35.236Z,11.50
2018-09-08T07:49:40.848Z,7.27
2018-09-08T07:51:45.228Z,8.48
2018-09-08T07:53:49.170Z,8.13
2018-09-08T07:55:53.132Z,10.68
2018-09-08T07:57:57.085Z,10.10
2018-09-08T08:00:01.668Z,11.27
2018-09-08T08:02:07.172Z,10.40
2018-09-08T08:04:11.725Z,9.25
2018-09-08T08:06:15.821Z,10.70
2018-09-08T08:08:19.673Z,13.78
2018-09-08T08:10:23.566Z,11.03
2018-09-08T08:12:27.549Z,8.23
2018-09-08T08:14:31.543Z,9.48
2018-09-08T08:16:37.060Z,10.63
2018-09-08T08:18:41.557Z,8.05
2018-09-08T08:20:45.855Z,9.68
2018-09-08T08:22:49.687Z,7.45
2018-09-08T08:24:53.620Z,6.75
2018-09-08T08:26:57.559Z,5.97
2018-09-08T08:29:01.626Z,6.55
2018-09-08T08:31:05.905Z,8.60
2018-09-08T08:33:10.464Z,11.03
2018-09-08T08:35:15.364Z,8.03
2018-09-08T08:37:19.347Z,11.73
2018-09-08T08:39:23.507Z,11.73
2018-09-08T08:41:27.392Z,9.25
2018-09-08T08:43:31.319Z,5.90
2018-09-08T08:45:36.315Z,6.92
2018-09-08T08:47:40.622Z,5.95
2018-09-08T08:49:45.581Z,4.78
2018-09-08T08:52:01.118Z,5.22
2018-09-08T08:54:15.962Z,6.10
2018-09-08T08:56:20.029Z,4.65
2018-09-08T08:58:24.046Z,6.03
2018-09-08T09:00:28.058Z,6.30
2018-09-08T09:02:32.044Z,9.23
2018-09-08T09:04:37.747Z,7.97
2018-09-08T09:06:42.173Z,6.25
2018-09-08T09:08:47.405Z,8.13
2018-09-08T09:10:51.144Z,6.17
2018-09-08T09:12:55.144Z,6.12
2018-09-08T09:14:58.988Z,9.98
2018-09-08T09:17:02.897Z,5.55
2018-09-08T09:19:39.936Z,9.70
2018-09-08T09:21:55.263Z,5.50
2018-09-08T09:25:08.214Z,8.88
2018-09-08T09:27:12.600Z,4.97
2018-09-08T09:29:16.976Z,5.85
2018-09-08T09:31:20.861Z,6.37
2018-09-08T09:33:24.893Z,5.28
2018-09-08T09:35:28.915Z,5.78
2018-09-08T09:37:32.761Z,7.85
2018-09-08T09:39:37.651Z,6.35
2018-09-08T09:41:42.926Z,5.95
2018-09-08T09:44:17.693Z,3.40
2018-09-08T09:46:21.607Z,4.97
2018-09-08T09:48:25.547Z,6.83
2018-09-08T09:50:29.839Z,8.28
2018-09-08T09:52:34.120Z,4.20
2018-09-08T09:54:38.541Z,5.60
2018-09-08T09:56:43.891Z,8.60
2018-09-08T09:58:48.158Z,5.55
2018-09-08T10:03:14.155Z,7.03
2018-09-08T10:05:24.848Z,5.20
2018-09-08T10:07:28.980Z,3.95
2018-09-08T10:09:33.107Z,4.42
2018-09-08T10:11:49.266Z,4.22
2018-09-08T10:13:53.727Z,6.65
2018-09-08T10:15:57.670Z,4.00
2018-09-08T10:18:01.721Z,9.58
2018-09-08T10:20:07.711Z,5.53
2018-09-08T10:22:12.755Z,4.15
2018-09-08T10:24:17.190Z,3.75
2018-09-08T10:26:21.194Z,6.90
2018-09-08T10:28:25.052Z,6.42
2018-09-08T10:30:29.008Z,3.47
2018-09-08T10:32:32.938Z,4.62
2018-09-08T10:34:38.670Z,5.62
2018-09-08T10:36:43.291Z,6.35
2018-09-08T10:38:48.180Z,8.25
2018-09-08T10:40:52.116Z,8.03
2018-09-08T10:42:56.111Z,4.92
2018-09-08T10:45:00.555Z,7.12
2018-09-08T10:47:06.381Z,5.62
2018-09-08T10:49:10.864Z,4.17
2018-09-08T10:53:22.175Z,3.50
2018-09-08T10:55:26.015Z,3.45
2018-09-08T10:57:29.879Z,7.03
2018-09-08T10:59:35.923Z,3.72
2018-09-08T11:01:41.197Z,4.95
2018-09-08T11:03:45.734Z,3.42
2018-09-08T11:05:49.830Z,3.52
2018-09-08T11:07:53.698Z,5.58
2018-09-08T11:09:57.864Z,3.02
2018-09-08T11:12:02.118Z,4.20
2018-09-08T11:14:08.695Z,4.33
2018-09-08T11:16:13.122Z,2.98
2018-09-08T11:24:51.448Z,4.87
2018-09-08T11:26:55.640Z,3.75
2018-09-08T11:28:59.546Z,4.30
2018-09-08T11:31:03.622Z,2.33
2018-09-08T11:33:07.810Z,2.83
2018-09-08T11:35:12.267Z,3.92
2018-09-08T11:37:16.468Z,2.25
2018-09-08T11:39:20.505Z,3.47
2018-09-08T11:41:24.528Z,4.50
2018-09-08T11:43:28.446Z,2.87
2018-09-08T11:45:32.366Z,3.33
2018-09-08T11:47:38.234Z,2.27
2018-09-08T11:49:42.887Z,5.85
2018-09-08T11:51:47.752Z,2.92
2018-09-08T11:53:51.646Z,3.42
2018-09-08T11:55:55.828Z,2.60
2018-09-08T11:57:59.791Z,4.62
2018-09-08T12:00:05.827Z,5.45
2018-09-08T12:02:11.783Z,2.65
2018-09-08T12:04:24.643Z,2.75
2018-09-08T12:06:28.722Z,3.62
2018-09-08T12:08:32.913Z,2.33
2018-09-08T12:10:37.720Z,3.72
2018-09-08T12:12:42.308Z,4.12
2018-09-08T12:14:47.465Z,2.75
2018-09-08T12:16:51.593Z,2.65
2018-09-08T12:18:55.602Z,2.00
2018-09-08T12:20:59.905Z,3.47
2018-09-08T12:23:04.193Z,2.15
2018-09-08T12:25:10.159Z,2.58
2018-09-08T12:27:14.698Z,3.17
2018-09-08T12:29:19.105Z,3.87
2018-09-08T12:31:23.048Z,4.35
2018-09-08T12:33:27.085Z,3.77
2018-09-08T12:35:32.079Z,2.17
2018-09-08T12:37:37.527Z,7.62
2018-09-08T12:39:43.138Z,3.10
2018-09-08T12:41:48.410Z,2.85
2018-09-08T12:43:52.686Z,3.50
2018-09-08T12:45:56.748Z,5.42
2018-09-08T12:48:01.615Z,1.85
2018-09-08T12:50:07.162Z,2.75
2018-09-08T12:52:11.774Z,4.17
2018-09-08T12:54:16.326Z,3.75
2018-09-08T12:56:20.762Z,3.95
2018-09-08T12:58:24.611Z,3.20
2018-09-08T13:00:28.638Z,4.42
2018-09-08T13:02:32.564Z,4.00
2018-09-08T13:04:40.100Z,3.75
2018-09-08T13:06:44.744Z,2.37
2018-09-08T13:08:49.182Z,2.10
2018-09-08T13:10:53.064Z,3.95
2018-09-08T13:12:57.344Z,3.67
2018-09-08T13:15:02.190Z,3.65
2018-09-08T13:17:07.976Z,2.72
2018-09-08T13:19:12.560Z,3.58
2018-09-08T13:21:16.823Z,3.65
2018-09-08T13:23:21.038Z,5.50
2018-09-08T13:25:26.006Z,5.03
2018-09-08T13:27:30.078Z,3.75
2018-09-08T13:29:34.519Z,3.22
2018-09-08T13:31:40.885Z,3.35
2018-09-08T13:33:46.388Z,2.62
2018-09-08T13:35:50.973Z,4.60
2018-09-08T13:37:54.972Z,2.80
2018-09-08T13:39:59.269Z,2.98
2018-09-08T13:42:03.944Z,4.62
2018-09-08T13:44:09.234Z,5.20
2018-09-08T13:46:13.642Z,3.17
2018-09-08T13:48:18.028Z,2.83
2018-09-08T13:50:22.118Z,5.42
2018-09-08T13:52:29.060Z,2.95
2018-09-08T13:54:33.238Z,3.00
2018-09-08T13:56:40.561Z,2.52
2018-09-08T13:58:44.931Z,2.58
2018-09-08T14:00:49.292Z,4.67
2018-09-08T14:02:53.228Z,4.70
2018-09-08T14:04:57.239Z,2.52
2018-09-08T14:07:01.916Z,2.35
2018-09-08T14:09:08.739Z,4.22
2018-09-08T14:11:13.562Z,1.80
2018-09-08T14:13:19.810Z,1.90
2018-09-08T14:15:24.566Z,2.52
2018-09-08T14:17:28.744Z,6.08
2018-09-08T14:19:32.584Z,2.70
2018-09-08T14:21:38.576Z,4.08
2018-09-08T14:23:43.262Z,4.15
2018-09-08T14:25:47.409Z,2.08
2018-09-08T14:27:51.538Z,2.70
2018-09-08T14:29:55.480Z,1.30
2018-09-08T14:31:59.495Z,2.35
2018-09-08T14:34:03.448Z,3.15
2018-09-08T14:36:10.298Z,2.87
2018-09-08T14:38:14.985Z,3.20
2018-09-08T14:40:19.643Z,3.22
2018-09-08T14:42:23.515Z,2.83
2018-09-08T14:44:28.217Z,2.87
2018-09-08T14:46:32.746Z,4.22
2018-09-08T14:48:42.103Z,3.33
2018-09-08T14:50:48.436Z,3.95
2018-09-08T14:52:52.489Z,2.22
2018-09-08T14:54:56.580Z,6.12
2018-09-08T14:57:01.000Z,6.10
2018-09-08T14:59:25.142Z,1.87
2018-09-08T15:01:31.106Z,4.72
2018-09-08T15:03:35.973Z,2.75
2018-09-08T15:05:40.493Z,1.65
2018-09-08T15:07:45.053Z,3.45
2018-09-08T15:09:49.284Z,2.85
2018-09-08T15:11:53.144Z,4.50
2018-09-08T15:13:57.295Z,2.75
2018-09-08T15:16:01.292Z,2.30
2018-09-08T15:18:07.580Z,3.87
2018-09-08T15:20:12.408Z,4.78
2018-09-08T15:22:16.485Z,4.37
2018-09-08T15:24:20.566Z,3.83
2018-09-08T15:26:26.370Z,1.52
2018-09-08T15:28:30.577Z,5.10
2018-09-08T15:30:48.025Z,5.62
2018-09-08T15:33:02.789Z,4.15
2018-09-08T15:35:16.335Z,3.35
2018-09-08T15:37:28.465Z,4.17
2018-09-08T15:39:34.677Z,2.33
2018-09-08T15:41:48.701Z,2.77
2018-09-08T15:43:54.347Z,4.50
2018-09-08T15:46:01.367Z,2.62
2018-09-08T15:48:13.557Z,4.35
2018-09-08T15:50:18.347Z,4.00
2018-09-08T15:52:22.470Z,3.27
2018-09-08T15:54:26.677Z,3.80
2018-09-08T15:56:30.741Z,4.37
2018-09-08T15:58:36.773Z,4.15
2018-09-08T16:00:42.050Z,2.15
2018-09-08T16:02:46.747Z,3.02
2018-09-08T16:04:50.770Z,2.95
2018-09-08T16:06:54.772Z,2.65
2018-09-08T16:08:58.802Z,1.40
2018-09-08T16:11:02.798Z,2.80
2018-09-08T16:13:09.266Z,2.00
2018-09-08T16:15:13.510Z,2.25
2018-09-08T16:17:17.832Z,3.08
2018-09-08T16:19:22.256Z,2.80
2018-09-08T16:21:26.854Z,3.17
2018-09-08T16:23:31.238Z,2.12
2018-09-08T16:25:36.853Z,2.00
2018-09-08T16:27:41.856Z,2.10
2018-09-08T16:29:46.699Z,3.55
2018-09-08T16:31:51.290Z,1.45
2018-09-08T16:33:56.882Z,2.47
2018-09-08T16:36:02.790Z,3.33
2018-09-08T16:38:08.828Z,1.60
2018-09-08T16:40:13.302Z,3.17
2018-09-08T16:42:17.768Z,4.30
2018-09-08T16:44:22.339Z,2.20
2018-09-08T16:46:26.719Z,2.50
2018-09-08T16:48:31.240Z,2.47
2018-09-08T16:50:36.822Z,3.30
2018-09-08T16:52:41.997Z,2.62
2018-09-08T16:54:46.701Z,1.98
2018-09-08T16:56:50.949Z,2.90
2018-09-08T16:58:55.163Z,2.20
2018-09-08T17:00:59.245Z,1.70
2018-09-08T17:03:03.762Z,2.30
2018-09-08T17:05:08.927Z,6.45
2018-09-08T17:07:13.319Z,2.00
2018-09-08T17:09:17.594Z,4.10
2018-09-08T17:11:21.707Z,2.62
2018-09-08T17:13:25.608Z,3.27
2018-09-08T17:15:29.539Z,2.87
2018-09-08T17:17:33.574Z,4.08
2018-09-08T17:21:03.100Z,3.67
2018-09-08T17:23:07.583Z,2.95
2018-09-08T17:25:12.459Z,2.83
2018-09-08T17:27:18.068Z,4.25
2018-09-08T17:29:24.874Z,4.70
2018-09-08T17:31:28.957Z,4.47
2018-09-08T17:33:33.790Z,3.58
2018-09-08T17:35:39.305Z,3.27
2018-09-08T17:37:44.881Z,2.87
2018-09-08T17:39:49.383Z,2.95
2018-09-08T17:41:53.366Z,4.67
2018-09-08T17:43:57.443Z,3.05
2018-09-08T17:46:01.935Z,3.95
2018-09-08T17:48:07.401Z,2.35
2018-09-08T17:50:12.100Z,2.00
2018-09-08T17:52:16.368Z,3.00
2018-09-08T17:54:20.892Z,2.90
2018-09-08T17:56:24.823Z,4.28
2018-09-08T17:58:28.916Z,3.05
2018-09-08T18:00:32.864Z,3.40
2018-09-08T18:02:37.323Z,5.75
2018-09-08T18:04:41.687Z,2.60
2018-09-08T18:06:45.777Z,3.22
2018-09-08T18:08:49.762Z,2.20
2018-09-08T18:10:54.463Z,4.42
2018-09-08T18:12:58.675Z,3.12
2018-09-08T18:15:02.835Z,2.45
2018-09-08T18:17:07.942Z,2.17
2018-09-08T18:19:12.528Z,3.25
2018-09-08T18:21:16.527Z,3.08
2018-09-08T18:23:22.292Z,4.60
2018-09-08T18:25:26.345Z,3.30
2018-09-08T18:27:30.298Z,2.52
2018-09-08T18:29:34.419Z,5.78
2018-09-08T18:31:39.840Z,5.90
2018-09-08T18:33:44.147Z,4.37
2018-09-08T18:35:50.653Z,4.05
2018-09-08T18:37:54.811Z,6.60
2018-09-08T18:39:58.835Z,4.12
2018-09-08T18:42:02.857Z,4.87
2018-09-08T18:44:07.874Z,4.58
2018-09-08T18:46:12.359Z,3.30
2018-09-08T18:48:16.489Z,3.67
2018-09-08T18:50:20.332Z,3.90
2018-09-08T18:52:24.373Z,5.83
2018-09-08T18:54:28.316Z,5.05
2018-09-08T18:56:32.372Z,5.22
2018-09-08T18:58:39.503Z,4.47
2018-09-08T19:00:43.797Z,5.92
2018-09-08T19:02:48.262Z,6.55
2018-09-08T19:04:52.264Z,4.78
2018-09-08T19:06:56.317Z,5.05
2018-09-08T19:09:00.448Z,4.15
2018-09-08T19:11:05.374Z,4.95
2018-09-08T19:13:09.793Z,3.27
2018-09-08T19:15:16.783Z,5.25
2018-09-08T19:17:20.800Z,5.00
2018-09-08T19:19:24.715Z,6.22
2018-09-08T19:21:28.897Z,5.28
2018-09-08T19:23:32.902Z,5.15
2018-09-08T19:25:38.293Z,3.40
2018-09-08T19:27:42.648Z,5.97
2018-09-08T19:29:47.797Z,4.70
2018-09-08T19:31:51.690Z,10.88
2018-09-08T19:33:56.108Z,12.23
2018-09-08T19:36:00.250Z,16.32
2018-09-08T19:38:05.043Z,11.38
2018-09-08T19:40:14.460Z,9.53
2018-09-08T19:42:18.546Z,9.43
2018-09-08T19:44:22.671Z,6.72
2018-09-08T19:46:31.870Z,9.58
2018-09-08T19:48:37.557Z,5.37
2018-09-08T19:50:41.892Z,5.60
2018-09-08T19:52:51.074Z,5.95
2018-09-08T19:54:55.190Z,6.45
2018-09-08T19:57:04.433Z,5.85
2018-09-08T19:59:10.139Z,3.45
2018-09-08T20:01:14.509Z,4.83
2018-09-08T20:03:18.429Z,4.15
2018-09-08T20:05:22.350Z,5.15
2018-09-08T20:07:26.276Z,5.20
2018-09-08T20:09:31.214Z,4.28
2018-09-08T20:11:36.383Z,4.53
2018-09-08T20:13:40.880Z,6.15
2018-09-08T20:15:44.815Z,7.25
2018-09-08T20:17:49.259Z,6.00
2018-09-08T20:19:53.243Z,6.95
2018-09-08T20:21:57.288Z,4.72
2018-09-08T20:24:01.228Z,6.37
2018-09-08T20:26:06.342Z,4.60
2018-09-08T20:28:10.809Z,5.70
2018-09-08T20:30:15.157Z,5.37
2018-09-08T20:32:19.739Z,12.78
2018-09-08T20:34:23.757Z,23.00
2018-09-08T20:36:28.715Z,34.27
2018-09-08T20:38:32.695Z,32.20
2018-09-08T20:40:38.656Z,38.10
2018-09-08T20:42:43.080Z,29.12
2018-09-08T20:44:47.312Z,23.25
2018-09-08T20:46:51.264Z,18.10
2018-09-08T20:48:56.420Z,14.93
2018-09-08T20:51:00.384Z,12.88
2018-09-08T20:53:04.575Z,11.03
2018-09-08T20:55:09.837Z,10.15
2018-09-08T20:57:14.340Z,6.40
2018-09-08T20:59:18.635Z,8.43
2018-09-08T21:01:22.640Z,7.53
2018-09-08T21:03:26.572Z,7.05
2018-09-08T21:05:30.530Z,5.45
2018-09-08T21:07:35.191Z,5.53
2018-09-08T21:09:40.831Z,4.70
2018-09-08T21:11:45.217Z,5.58
2018-09-08T21:13:49.509Z,7.40
2018-09-08T21:15:53.455Z,9.03
2018-09-08T21:17:57.310Z,5.03
2018-09-08T21:20:01.264Z,6.08
2018-09-08T21:22:06.943Z,4.95
2018-09-08T21:24:11.356Z,6.90
2018-09-08T21:26:15.471Z,4.40
2018-09-08T21:28:19.566Z,5.53
2018-09-08T21:30:23.483Z,5.03
2018-09-08T21:32:27.549Z,7.47
2018-09-08T21:34:31.635Z,6.92
2018-09-08T21:36:36.890Z,6.85
2018-09-08T21:38:41.196Z,5.33
2018-09-08T21:40:46.369Z,6.83
2018-09-08T21:42:50.376Z,6.08
2018-09-08T21:44:54.589Z,6.45
2018-09-08T21:46:58.509Z,4.22
2018-09-08T21:49:02.496Z,9.48
2018-09-08T21:51:07.019Z,6.60
2018-09-08T21:53:11.235Z,6.97
2018-09-08T21:55:15.592Z,4.45
2018-09-08T21:57:19.574Z,4.85
2018-09-08T21:59:23.649Z,4.42
2018-09-08T22:01:28.624Z,5.58
2018-09-08T22:03:32.512Z,7.35
2018-09-08T22:05:47.945Z,6.00
2018-09-08T22:07:52.619Z,5.17
2018-09-08T22:09:58.915Z,6.47
2018-09-08T22:12:02.905Z,4.22
2018-09-08T22:14:07.313Z,4.80
2018-09-08T22:16:11.678Z,5.15
2018-09-08T22:18:15.794Z,4.42
2018-09-08T22:20:20.007Z,5.33
2018-09-08T22:22:24.046Z,5.58
2018-09-08T22:24:28.791Z,4.60
2018-09-08T22:26:32.884Z,5.83
2018-09-08T22:28:39.130Z,5.28
2018-09-08T22:30:43.583Z,5.53
2018-09-08T22:32:47.700Z,4.42
2018-09-08T22:34:52.324Z,6.85
2018-09-08T22:36:56.291Z,4.60
2018-09-08T22:39:00.878Z,5.65
2018-09-08T22:41:05.539Z,6.92
2018-09-08T22:43:09.999Z,6.83
2018-09-08T22:45:14.156Z,4.57
2018-09-08T22:47:18.192Z,6.17
2018-09-08T22:49:22.331Z,7.90
2018-09-08T22:51:26.471Z,5.67
2018-09-08T22:53:30.387Z,6.20
2018-09-08T22:55:34.484Z,4.97
2018-09-08T22:57:38.757Z,5.97
2018-09-08T22:59:43.524Z,5.58
2018-09-08T23:01:47.612Z,7.17
2018-09-08T23:03:51.601Z,3.45
2018-09-08T23:05:55.531Z,6.05
2018-09-08T23:07:59.623Z,7.20
2018-09-08T23:10:03.501Z,4.33
2018-09-08T23:12:07.878Z,4.90
2018-09-08T23:14:12.154Z,6.20
2018-09-08T23:16:16.249Z,5.75
2018-09-08T23:18:20.103Z,4.70
2018-09-08T23:20:24.069Z,5.23
2018-09-08T23:22:27.999Z,5.30
2018-09-08T23:24:31.954Z,3.67
2018-09-08T23:26:37.524Z,4.50
2018-09-08T23:28:43.105Z,4.85
2018-09-08T23:30:47.435Z,4.33
2018-09-08T23:32:51.437Z,3.87
2018-09-08T23:34:55.459Z,4.92
2018-09-08T23:36:59.409Z,5.67
2018-09-08T23:39:04.533Z,5.65
2018-09-08T23:41:09.193Z,5.42
2018-09-08T23:43:13.326Z,5.05
2018-09-08T23:45:17.516Z,6.80
2018-09-08T23:47:21.480Z,4.78
2018-09-08T23:49:25.372Z,5.67
2018-09-08T23:51:29.483Z,4.97
2018-09-08T23:53:33.909Z,6.30
2018-09-08T23:55:38.130Z,4.53
2018-09-08T23:57:42.436Z,5.10
2018-09-08T23:59:47.479Z,4.20
